createdAt,value
2022-09-23T00:02:24.878Z,98116.19
2022-09-23T00:07:26.112Z,98108.88
2022-09-23T00:12:27.326Z,98104.03
2022-09-23T00:17:28.526Z,98107.06
2022-09-23T00:22:29.721Z,98101.34
2022-09-23T00:27:30.988Z,98099.97
2022-09-23T00:32:32.209Z,98098.84
2022-09-23T00:37:33.713Z,98100.06
2022-09-23T00:42:34.990Z,98098.19
2022-09-23T00:47:36.228Z,98097.78
2022-09-23T00:52:37.479Z,98088.50
2022-09-23T00:57:38.899Z,98085.94
2022-09-23T01:02:40.164Z,98083.13
2022-09-23T01:07:41.468Z,98071.84
2022-09-23T01:12:42.712Z,98073.97
2022-09-23T01:17:44.067Z,98070.00
2022-09-23T01:22:46.662Z,98066.53
2022-09-23T01:27:47.907Z,98054.41
2022-09-23T01:32:49.146Z,98057.34
2022-09-23T01:37:50.398Z,98059.09
2022-09-23T01:42:52.125Z,98054.94
2022-09-23T01:47:53.485Z,98050.72
2022-09-23T01:52:54.785Z,98050.81
2022-09-23T01:57:56.095Z,98052.69
2022-09-23T02:02:58.874Z,98048.59
2022-09-23T02:08:00.098Z,98040.41
2022-09-23T02:13:01.326Z,98041.31
2022-09-23T02:18:02.573Z,98039.41
2022-09-23T02:23:03.845Z,98037.84
2022-09-23T02:28:05.089Z,98039.94
2022-09-23T02:33:07.082Z,98045.22
2022-09-23T02:38:08.326Z,98042.75
2022-09-23T02:43:09.585Z,98040.78
2022-09-23T02:48:10.808Z,98035.03
2022-09-23T02:53:12.010Z,98033.81
2022-09-23T02:58:13.987Z,98027.81
2022-09-23T03:03:15.662Z,98026.66
2022-09-23T03:08:19.217Z,98019.81
2022-09-23T03:13:26.130Z,98024.28
2022-09-23T03:18:31.625Z,98031.03
2022-09-23T03:23:33.850Z,98025.13
2022-09-23T03:28:35.035Z,98019.97
2022-09-23T03:33:36.275Z,98019.81
2022-09-23T03:38:37.916Z,98020.56
2022-09-23T03:43:39.192Z,98017.06
2022-09-23T03:48:40.707Z,98017.53
2022-09-23T03:53:42.355Z,98021.44
2022-09-23T03:58:45.443Z,98017.47
2022-09-23T04:03:46.650Z,98012.16
2022-09-23T04:08:47.853Z,98016.00
2022-09-23T04:13:49.066Z,98013.13
2022-09-23T04:18:50.282Z,98014.75
2022-09-23T04:23:51.991Z,98002.56
2022-09-23T04:28:53.219Z,98008.03
2022-09-23T04:33:54.422Z,98001.75
2022-09-23T04:38:56.295Z,98000.78
2022-09-23T04:43:57.644Z,98002.91
2022-09-23T04:48:59.000Z,98001.94
2022-09-23T04:54:00.241Z,98003.41
2022-09-23T04:59:04.531Z,98017.22
2022-09-23T05:04:05.847Z,98018.94
2022-09-23T05:09:07.214Z,98024.09
2022-09-23T05:14:08.615Z,98035.56
2022-09-23T05:19:09.949Z,98029.13
2022-09-23T05:24:11.194Z,98032.56
2022-09-23T05:29:12.429Z,98036.16
2022-09-23T05:34:13.649Z,98027.88
2022-09-23T05:39:14.922Z,98036.34
2022-09-23T05:44:16.183Z,98037.16
2022-09-23T05:49:17.428Z,98029.38
2022-09-23T05:54:19.142Z,98046.34
2022-09-23T05:59:20.408Z,98040.41
2022-09-23T06:04:21.833Z,98042.78
2022-09-23T06:09:23.065Z,98045.34
2022-09-23T06:14:24.483Z,98048.28
2022-09-23T06:19:25.683Z,98054.75
2022-09-23T06:24:31.026Z,98050.56
2022-09-23T06:29:33.172Z,98061.09
2022-09-23T06:34:45.322Z,98055.16
2022-09-23T06:39:52.619Z,98057.16
2022-09-23T06:44:53.955Z,98058.19
2022-09-23T06:49:55.157Z,98061.75
2022-09-23T06:54:56.815Z,98057.78
2022-09-23T06:59:59.091Z,98060.38
2022-09-23T07:05:00.447Z,98062.06
2022-09-23T07:10:01.752Z,98064.19
2022-09-23T07:15:02.965Z,98050.19
2022-09-23T07:20:04.447Z,98063.34
2022-09-23T07:25:06.211Z,98060.47
2022-09-23T07:30:11.450Z,98043.34
2022-09-23T07:35:17.762Z,98038.63
2022-09-23T07:40:19.055Z,98030.28
2022-09-23T07:45:21.786Z,98026.28
2022-09-23T07:50:23.080Z,98026.34
2022-09-23T07:55:24.304Z,98019.41
2022-09-23T08:00:25.498Z,98014.56
2022-09-23T08:05:26.730Z,98016.25
2022-09-23T08:10:28.149Z,98011.94
2022-09-23T08:15:29.934Z,98008.75
2022-09-23T08:20:47.740Z,98013.72
2022-09-23T08:25:49.407Z,98001.91
2022-09-23T08:30:50.649Z,97993.78
2022-09-23T08:35:52.047Z,97984.28
2022-09-23T08:40:53.333Z,97965.84
2022-09-23T08:45:54.610Z,97943.84
2022-09-23T08:50:58.442Z,97925.94
2022-09-23T08:55:59.708Z,97912.69
2022-09-23T09:01:01.005Z,97907.28
2022-09-23T09:06:02.265Z,97899.66
2022-09-23T09:11:03.466Z,97892.69
2022-09-23T09:16:06.124Z,97893.50
2022-09-23T09:21:09.941Z,97887.44
2022-09-23T09:26:11.155Z,97876.34
2022-09-23T09:31:12.400Z,97875.81
2022-09-23T09:36:13.635Z,97871.53
2022-09-23T09:41:15.113Z,97862.59
2022-09-23T09:46:16.357Z,97850.72
2022-09-23T09:51:18.763Z,97845.69
2022-09-23T09:56:20.622Z,97837.38
2022-09-23T10:01:21.852Z,97830.59
2022-09-23T10:06:24.325Z,97810.63
2022-09-23T10:11:25.550Z,97801.28
2022-09-23T10:16:26.784Z,97795.97
2022-09-23T10:21:33.171Z,97797.94
2022-09-23T10:26:34.441Z,97785.06
2022-09-23T10:31:35.693Z,97787.53
2022-09-23T10:36:40.086Z,97774.84
2022-09-23T10:42:02.643Z,97757.66
2022-09-23T10:47:03.907Z,97756.91
2022-09-23T10:52:05.273Z,97751.06
2022-09-23T10:57:26.482Z,97741.78
2022-09-23T11:02:28.359Z,97729.56
2022-09-23T11:07:32.751Z,97738.41
2022-09-23T11:12:37.043Z,97733.78
2022-09-23T11:17:38.264Z,97725.06
2022-09-23T11:22:39.483Z,97718.59
2022-09-23T11:27:40.705Z,97708.38
2022-09-23T11:32:41.926Z,97693.91
2022-09-23T11:37:43.122Z,97679.13
2022-09-23T11:42:44.402Z,97678.03
2022-09-23T11:47:45.623Z,97677.31
2022-09-23T11:52:46.830Z,97668.81
2022-09-23T11:57:49.490Z,97657.44
2022-09-23T12:03:01.961Z,97650.38
2022-09-23T12:08:05.693Z,97647.97
2022-09-23T12:13:07.327Z,97630.66
2022-09-23T12:18:10.562Z,97631.72
2022-09-23T12:23:13.254Z,97624.69
2022-09-23T12:28:14.462Z,97622.63
2022-09-23T12:33:15.791Z,97611.69
2022-09-23T12:38:17.026Z,97619.13
2022-09-23T12:43:18.266Z,97612.38
2022-09-23T12:48:19.467Z,97609.47
2022-09-23T12:53:20.923Z,97586.69
2022-09-23T12:58:22.152Z,97571.63
2022-09-23T13:03:42.325Z,97560.19
2022-09-23T13:08:43.551Z,97559.63
2022-09-23T13:13:44.770Z,97550.63
2022-09-23T13:18:46.080Z,97546.06
2022-09-23T13:23:47.283Z,97528.97
2022-09-23T13:28:48.532Z,97526.34
2022-09-23T13:33:49.733Z,97499.13
2022-09-23T13:38:50.934Z,97507.63
2022-09-23T13:43:52.149Z,97498.16
2022-09-23T13:48:56.543Z,97491.09
2022-09-23T13:53:57.775Z,97481.41
2022-09-23T13:58:58.992Z,97488.69
2022-09-23T14:04:00.241Z,97480.34
2022-09-23T14:09:01.561Z,97479.63
2022-09-23T14:14:06.987Z,97453.44
2022-09-23T14:19:08.354Z,97466.00
2022-09-23T14:24:09.590Z,97450.50
2022-09-23T14:29:10.840Z,97453.41
2022-09-23T14:34:12.053Z,97457.31
2022-09-23T14:39:13.366Z,97447.16
2022-09-23T14:44:14.566Z,97449.34
2022-09-23T14:49:15.811Z,97446.16
2022-09-23T14:54:17.028Z,97445.97
2022-09-23T14:59:18.228Z,97439.44
2022-09-23T15:04:19.755Z,97429.00
2022-09-23T15:09:21.071Z,97420.38
2022-09-23T15:14:37.301Z,97418.22
2022-09-23T15:19:39.286Z,97424.22
2022-09-23T15:24:40.565Z,97415.19
2022-09-23T15:29:41.808Z,97417.66
2022-09-23T15:34:43.095Z,97435.66
2022-09-23T15:39:44.352Z,97442.56
2022-09-23T15:44:45.709Z,97445.59
2022-09-23T15:49:47.245Z,97468.25
2022-09-23T15:54:48.488Z,97471.78
2022-09-23T15:59:49.719Z,97469.72
2022-09-23T16:04:52.345Z,97490.59
2022-09-23T16:09:54.773Z,97485.56
2022-09-23T16:14:56.025Z,97488.91
2022-09-23T16:19:57.296Z,97493.19
2022-09-23T16:24:58.585Z,97496.59
2022-09-23T16:29:59.820Z,97502.78
2022-09-23T16:35:01.039Z,97506.06
2022-09-23T16:40:03.675Z,97504.50
2022-09-23T16:45:06.053Z,97502.91
2022-09-23T16:50:09.214Z,97501.53
2022-09-23T16:55:10.613Z,97500.22
2022-09-23T17:00:30.730Z,97491.34
2022-09-23T17:05:31.991Z,97494.53
2022-09-23T17:10:33.208Z,97497.56
2022-09-23T17:15:34.415Z,97505.63
2022-09-23T17:20:35.624Z,97525.53
2022-09-23T17:25:36.839Z,97528.81
2022-09-23T17:30:39.287Z,97534.28
2022-09-23T17:35:40.483Z,97540.28
2022-09-23T17:40:42.015Z,97544.78
2022-09-23T17:45:43.373Z,97550.09
2022-09-23T17:50:44.586Z,97552.25
2022-09-23T17:55:45.794Z,97549.09
2022-09-23T18:00:47.107Z,97569.47
2022-09-23T18:05:48.375Z,97571.81
2022-09-23T18:10:49.583Z,97580.75
2022-09-23T18:15:50.819Z,97590.53
2022-09-23T18:20:52.019Z,97595.34
2022-09-23T18:25:53.219Z,97596.09
2022-09-23T18:30:54.442Z,97596.00
2022-09-23T18:35:55.677Z,97591.72
2022-09-23T18:40:57.519Z,97598.97
2022-09-23T18:45:58.921Z,97594.66
2022-09-23T18:51:00.153Z,97582.88
2022-09-23T18:56:02.345Z,97597.22
2022-09-23T19:01:03.632Z,97595.00
2022-09-23T19:06:04.918Z,97591.69
2022-09-23T19:11:06.154Z,97596.72
2022-09-23T19:16:07.695Z,97592.72
2022-09-23T19:21:09.017Z,97581.09
2022-09-23T19:26:10.334Z,97593.09
2022-09-23T19:31:11.839Z,97594.72
2022-09-23T19:36:13.236Z,97587.09
2022-09-23T19:41:14.442Z,97595.00
2022-09-23T19:46:16.093Z,97605.44
2022-09-23T19:51:19.384Z,97595.63
2022-09-23T19:56:20.632Z,97586.25
2022-09-23T20:01:21.904Z,97596.50
2022-09-23T20:06:23.179Z,97592.09
2022-09-23T20:11:28.435Z,97596.13
2022-09-23T20:16:31.859Z,97589.50
2022-09-23T20:21:33.740Z,97595.38
2022-09-23T20:26:53.798Z,97586.22
2022-09-23T20:31:56.938Z,97589.16
2022-09-23T20:36:59.176Z,97592.53
2022-09-23T20:42:02.611Z,97597.19
2022-09-23T20:47:03.905Z,97584.00
2022-09-23T20:52:06.334Z,97585.41
2022-09-23T20:57:07.534Z,97590.44
2022-09-23T21:02:08.834Z,97595.28
2022-09-23T21:07:10.228Z,97595.69
2022-09-23T21:12:11.636Z,97593.31
2022-09-23T21:17:12.864Z,97587.69
2022-09-23T21:22:14.166Z,97579.38
2022-09-23T21:27:15.405Z,97579.66
2022-09-23T21:32:16.623Z,97574.56
2022-09-23T21:37:17.860Z,97574.25
2022-09-23T21:42:19.116Z,97575.25
2022-09-23T21:47:20.330Z,97562.41
2022-09-23T21:52:21.569Z,97566.50
2022-09-23T21:57:25.880Z,97575.44
2022-09-23T22:02:27.501Z,97588.91
2022-09-23T22:07:28.709Z,97580.66
2022-09-23T22:12:29.914Z,97578.06
2022-09-23T22:17:32.385Z,97568.91
2022-09-23T22:22:33.599Z,97575.47
2022-09-23T22:27:54.800Z,97571.19
2022-09-23T22:32:56.029Z,97573.84
2022-09-23T22:37:57.259Z,97562.06
2022-09-23T22:42:58.482Z,97554.84
2022-09-23T22:47:59.691Z,97548.28
2022-09-23T22:53:01.808Z,97550.09
2022-09-23T22:58:21.298Z,97542.59
2022-09-23T23:03:24.292Z,97555.41
2022-09-23T23:08:27.074Z,97548.28
2022-09-23T23:13:28.321Z,97537.53
2022-09-23T23:18:31.483Z,97545.44
2022-09-23T23:23:32.718Z,97547.03
2022-09-23T23:28:33.916Z,97552.78
2022-09-23T23:33:35.126Z,97549.41
2022-09-23T23:38:36.858Z,97544.41
2022-09-23T23:43:38.588Z,97544.50
2022-09-23T23:48:39.895Z,97538.09
2022-09-23T23:53:41.166Z,97535.09
2022-09-23T23:58:42.398Z,97532.22
